sensor_id;sensor_type;location;lat;lon;timestamp;pressure;altitude;pressure_sealevel;temperature;humidity
63306;BME280;50735;52.060;1.248;2023-08-06T00:01:54;100627.18;;;10.87;69.81
63306;BME280;50735;52.060;1.248;2023-08-06T00:04:25;100631.34;;;10.64;69.99
63306;BME280;50735;52.060;1.248;2023-08-06T00:06:57;100631.51;;;10.66;69.63
63306;BME280;50735;52.060;1.248;2023-08-06T00:09:30;100632.02;;;10.55;70.09
63306;BME280;50735;52.060;1.248;2023-08-06T00:12:02;100634.30;;;10.81;70.09
63306;BME280;50735;52.060;1.248;2023-08-06T00:14:33;100636.45;;;10.78;69.98
63306;BME280;50735;52.060;1.248;2023-08-06T00:17:05;100641.19;;;10.75;69.97
63306;BME280;50735;52.060;1.248;2023-08-06T00:19:37;100642.33;;;10.70;70.03
63306;BME280;50735;52.060;1.248;2023-08-06T00:22:09;100646.83;;;10.50;70.48
63306;BME280;50735;52.060;1.248;2023-08-06T00:24:40;100649.06;;;10.52;70.32
63306;BME280;50735;52.060;1.248;2023-08-06T00:27:12;100654.13;;;10.81;69.96
63306;BME280;50735;52.060;1.248;2023-08-06T00:29:44;100654.15;;;10.82;70.20
63306;BME280;50735;52.060;1.248;2023-08-06T00:32:17;100654.09;;;10.82;70.17
63306;BME280;50735;52.060;1.248;2023-08-06T00:34:49;100659.33;;;10.77;70.01
63306;BME280;50735;52.060;1.248;2023-08-06T00:37:21;100657.94;;;10.83;69.72
63306;BME280;50735;52.060;1.248;2023-08-06T00:39:53;100661.79;;;10.83;69.84
63306;BME280;50735;52.060;1.248;2023-08-06T00:42:24;100663.45;;;10.89;69.96
63306;BME280;50735;52.060;1.248;2023-08-06T00:44:56;100669.49;;;10.86;69.54
63306;BME280;50735;52.060;1.248;2023-08-06T00:47:28;100673.25;;;10.74;69.72
63306;BME280;50735;52.060;1.248;2023-08-06T00:50:00;100680.10;;;10.72;69.91
63306;BME280;50735;52.060;1.248;2023-08-06T00:52:32;100675.08;;;10.72;69.61
63306;BME280;50735;52.060;1.248;2023-08-06T00:55:04;100679.42;;;10.73;69.60
63306;BME280;50735;52.060;1.248;2023-08-06T00:57:37;100683.49;;;10.47;69.73
63306;BME280;50735;52.060;1.248;2023-08-06T01:00:10;100686.80;;;10.66;69.61
63306;BME280;50735;52.060;1.248;2023-08-06T01:02:42;100690.55;;;10.87;69.69
63306;BME280;50735;52.060;1.248;2023-08-06T01:05:14;100692.57;;;10.56;69.76
63306;BME280;50735;52.060;1.248;2023-08-06T01:07:55;100693.69;;;10.25;69.84
63306;BME280;50735;52.060;1.248;2023-08-06T01:10:41;100691.66;;;10.45;70.12
63306;BME280;50735;52.060;1.248;2023-08-06T01:13:24;100693.04;;;10.45;69.88
63306;BME280;50735;52.060;1.248;2023-08-06T01:16:00;100695.00;;;10.45;69.70
63306;BME280;50735;52.060;1.248;2023-08-06T01:18:33;100698.53;;;10.37;69.78
63306;BME280;50735;52.060;1.248;2023-08-06T01:21:04;100702.17;;;10.34;69.94
63306;BME280;50735;52.060;1.248;2023-08-06T01:23:36;100705.62;;;10.32;70.27
63306;BME280;50735;52.060;1.248;2023-08-06T01:26:14;100709.24;;;10.31;69.97
63306;BME280;50735;52.060;1.248;2023-08-06T01:28:52;100712.68;;;10.70;69.97
63306;BME280;50735;52.060;1.248;2023-08-06T01:31:30;100715.74;;;10.29;69.43
63306;BME280;50735;52.060;1.248;2023-08-06T01:34:05;100718.04;;;10.26;69.87
63306;BME280;50735;52.060;1.248;2023-08-06T01:36:37;100727.75;;;10.20;69.55
63306;BME280;50735;52.060;1.248;2023-08-06T01:39:10;100722.13;;;10.52;69.64
63306;BME280;50735;52.060;1.248;2023-08-06T01:41:41;100724.90;;;10.17;69.48
63306;BME280;50735;52.060;1.248;2023-08-06T01:44:13;100732.90;;;10.37;69.20
63306;BME280;50735;52.060;1.248;2023-08-06T01:46:45;100735.16;;;10.11;69.24
63306;BME280;50735;52.060;1.248;2023-08-06T01:49:17;100738.06;;;10.15;68.98
63306;BME280;50735;52.060;1.248;2023-08-06T01:51:49;100741.11;;;9.90;69.08
63306;BME280;50735;52.060;1.248;2023-08-06T01:54:20;100746.84;;;9.85;68.76
63306;BME280;50735;52.060;1.248;2023-08-06T01:56:52;100748.12;;;9.86;68.88
63306;BME280;50735;52.060;1.248;2023-08-06T01:59:24;100749.81;;;10.14;69.09
63306;BME280;50735;52.060;1.248;2023-08-06T02:01:56;100752.62;;;9.71;69.26
63306;BME280;50735;52.060;1.248;2023-08-06T02:04:28;100752.30;;;9.79;68.95
63306;BME280;50735;52.060;1.248;2023-08-06T02:07:00;100756.28;;;9.58;69.08
63306;BME280;50735;52.060;1.248;2023-08-06T02:09:32;100757.53;;;9.59;69.19
63306;BME280;50735;52.060;1.248;2023-08-06T02:12:05;100756.69;;;9.84;69.18
63306;BME280;50735;52.060;1.248;2023-08-06T02:14:36;100763.39;;;9.66;69.09
63306;BME280;50735;52.060;1.248;2023-08-06T02:17:08;100763.47;;;9.85;68.91
63306;BME280;50735;52.060;1.248;2023-08-06T02:19:40;100763.82;;;9.82;69.20
63306;BME280;50735;52.060;1.248;2023-08-06T02:22:12;100764.16;;;9.84;69.34
63306;BME280;50735;52.060;1.248;2023-08-06T02:24:44;100761.36;;;9.71;68.87
63306;BME280;50735;52.060;1.248;2023-08-06T02:27:15;100765.86;;;9.89;68.94
63306;BME280;50735;52.060;1.248;2023-08-06T02:29:47;100769.49;;;9.52;68.94
63306;BME280;50735;52.060;1.248;2023-08-06T02:32:19;100765.44;;;9.52;68.79
63306;BME280;50735;52.060;1.248;2023-08-06T02:34:52;100766.86;;;9.72;68.94
63306;BME280;50735;52.060;1.248;2023-08-06T02:37:24;100769.37;;;9.94;68.80
63306;BME280;50735;52.060;1.248;2023-08-06T02:39:55;100765.73;;;9.73;68.55
63306;BME280;50735;52.060;1.248;2023-08-06T02:42:27;100765.03;;;9.85;68.47
63306;BME280;50735;52.060;1.248;2023-08-06T02:44:59;100764.77;;;9.87;68.65
63306;BME280;50735;52.060;1.248;2023-08-06T02:47:31;100768.11;;;9.83;68.49
63306;BME280;50735;52.060;1.248;2023-08-06T02:50:03;100765.67;;;9.63;68.06
63306;BME280;50735;52.060;1.248;2023-08-06T02:52:35;100770.15;;;9.60;68.17
63306;BME280;50735;52.060;1.248;2023-08-06T02:55:07;100765.93;;;9.95;67.92
63306;BME280;50735;52.060;1.248;2023-08-06T02:57:39;100774.83;;;9.71;68.11
63306;BME280;50735;52.060;1.248;2023-08-06T03:00:11;100779.16;;;9.46;68.19
63306;BME280;50735;52.060;1.248;2023-08-06T03:02:42;100779.20;;;9.65;68.20
63306;BME280;50735;52.060;1.248;2023-08-06T03:05:14;100780.01;;;9.57;67.93
63306;BME280;50735;52.060;1.248;2023-08-06T03:07:46;100779.82;;;9.53;68.02
63306;BME280;50735;52.060;1.248;2023-08-06T03:10:18;100784.23;;;9.51;68.18
63306;BME280;50735;52.060;1.248;2023-08-06T03:12:49;100785.74;;;9.44;68.43
63306;BME280;50735;52.060;1.248;2023-08-06T03:15:21;100781.56;;;9.45;68.01
63306;BME280;50735;52.060;1.248;2023-08-06T03:17:55;100787.06;;;9.39;68.10
63306;BME280;50735;52.060;1.248;2023-08-06T03:20:27;100789.97;;;9.29;68.17
63306;BME280;50735;52.060;1.248;2023-08-06T03:22:59;100793.44;;;9.45;68.57
63306;BME280;50735;52.060;1.248;2023-08-06T03:25:30;100786.91;;;9.26;68.59
63306;BME280;50735;52.060;1.248;2023-08-06T03:28:03;100787.13;;;9.12;68.22
63306;BME280;50735;52.060;1.248;2023-08-06T03:30:34;100794.09;;;9.31;68.39
63306;BME280;50735;52.060;1.248;2023-08-06T03:33:06;100793.34;;;9.28;68.03
63306;BME280;50735;52.060;1.248;2023-08-06T03:35:38;100796.73;;;9.12;68.09
63306;BME280;50735;52.060;1.248;2023-08-06T03:38:10;100802.45;;;9.14;68.36
63306;BME280;50735;52.060;1.248;2023-08-06T03:40:41;100805.20;;;9.22;68.60
63306;BME280;50735;52.060;1.248;2023-08-06T03:43:13;100805.42;;;9.50;68.28
63306;BME280;50735;52.060;1.248;2023-08-06T03:45:46;100804.60;;;9.11;68.68
63306;BME280;50735;52.060;1.248;2023-08-06T03:48:17;100800.29;;;9.24;69.01
63306;BME280;50735;52.060;1.248;2023-08-06T03:50:50;100803.52;;;8.99;69.23
63306;BME280;50735;52.060;1.248;2023-08-06T03:53:21;100802.78;;;9.26;69.04
63306;BME280;50735;52.060;1.248;2023-08-06T03:55:53;100797.13;;;9.50;69.09
63306;BME280;50735;52.060;1.248;2023-08-06T03:58:25;100799.58;;;9.10;68.61
63306;BME280;50735;52.060;1.248;2023-08-06T04:00:59;100803.73;;;9.06;68.74
63306;BME280;50735;52.060;1.248;2023-08-06T04:03:31;100807.26;;;9.12;68.70
63306;BME280;50735;52.060;1.248;2023-08-06T04:06:03;100805.53;;;9.37;68.85
63306;BME280;50735;52.060;1.248;2023-08-06T04:08:35;100810.99;;;9.21;68.55
63306;BME280;50735;52.060;1.248;2023-08-06T04:11:06;100812.01;;;9.14;68.14
63306;BME280;50735;52.060;1.248;2023-08-06T04:13:38;100810.70;;;9.18;68.61
63306;BME280;50735;52.060;1.248;2023-08-06T04:16:13;100819.92;;;8.92;68.83
63306;BME280;50735;52.060;1.248;2023-08-06T04:18:45;100813.21;;;8.97;69.35
63306;BME280;50735;52.060;1.248;2023-08-06T04:21:16;100821.47;;;8.75;69.10
63306;BME280;50735;52.060;1.248;2023-08-06T04:23:48;100822.42;;;8.97;68.98
63306;BME280;50735;52.060;1.248;2023-08-06T04:26:20;100827.45;;;8.86;69.05
63306;BME280;50735;52.060;1.248;2023-08-06T04:28:51;100829.92;;;9.07;68.87
63306;BME280;50735;52.060;1.248;2023-08-06T04:31:23;100833.91;;;8.79;69.11
63306;BME280;50735;52.060;1.248;2023-08-06T04:33:55;100837.32;;;9.07;68.84
63306;BME280;50735;52.060;1.248;2023-08-06T04:36:27;100841.67;;;8.83;69.17
63306;BME280;50735;52.060;1.248;2023-08-06T04:38:58;100844.88;;;8.73;69.06
63306;BME280;50735;52.060;1.248;2023-08-06T04:41:31;100845.07;;;8.87;68.81
63306;BME280;50735;52.060;1.248;2023-08-06T04:44:03;100846.61;;;8.95;69.10
63306;BME280;50735;52.060;1.248;2023-08-06T04:46:34;100844.74;;;9.02;69.17
63306;BME280;50735;52.060;1.248;2023-08-06T04:49:06;100850.29;;;8.73;69.00
63306;BME280;50735;52.060;1.248;2023-08-06T04:51:38;100853.22;;;9.06;69.25
63306;BME280;50735;52.060;1.248;2023-08-06T04:54:10;100854.55;;;9.08;69.42
63306;BME280;50735;52.060;1.248;2023-08-06T04:56:42;100858.94;;;8.90;69.09
63306;BME280;50735;52.060;1.248;2023-08-06T04:59:14;100858.02;;;8.86;69.18
63306;BME280;50735;52.060;1.248;2023-08-06T05:01:45;100863.90;;;9.09;68.82
63306;BME280;50735;52.060;1.248;2023-08-06T05:04:17;100859.40;;;9.33;69.01
63306;BME280;50735;52.060;1.248;2023-08-06T05:06:49;100858.92;;;9.15;69.22
63306;BME280;50735;52.060;1.248;2023-08-06T05:09:21;100868.84;;;8.93;68.61
63306;BME280;50735;52.060;1.248;2023-08-06T05:11:53;100877.26;;;9.14;68.50
63306;BME280;50735;52.060;1.248;2023-08-06T05:14:25;100876.58;;;9.13;68.72
63306;BME280;50735;52.060;1.248;2023-08-06T05:16:56;100879.26;;;9.14;68.81
63306;BME280;50735;52.060;1.248;2023-08-06T05:19:28;100883.02;;;9.01;68.99
63306;BME280;50735;52.060;1.248;2023-08-06T05:22:00;100893.92;;;9.04;68.90
63306;BME280;50735;52.060;1.248;2023-08-06T05:24:32;100899.82;;;9.23;68.64
63306;BME280;50735;52.060;1.248;2023-08-06T05:27:04;100895.93;;;8.99;69.08
63306;BME280;50735;52.060;1.248;2023-08-06T05:29:36;100892.89;;;8.95;69.35
63306;BME280;50735;52.060;1.248;2023-08-06T05:32:08;100896.01;;;9.07;69.29
63306;BME280;50735;52.060;1.248;2023-08-06T05:34:40;100894.11;;;9.37;68.91
63306;BME280;50735;52.060;1.248;2023-08-06T05:37:11;100899.74;;;9.34;68.69
63306;BME280;50735;52.060;1.248;2023-08-06T05:39:43;100897.80;;;8.96;68.62
63306;BME280;50735;52.060;1.248;2023-08-06T05:42:15;100897.67;;;9.20;68.53
63306;BME280;50735;52.060;1.248;2023-08-06T05:44:47;100910.61;;;9.05;68.86
63306;BME280;50735;52.060;1.248;2023-08-06T05:47:19;100912.72;;;8.86;68.93
63306;BME280;50735;52.060;1.248;2023-08-06T05:49:51;100913.20;;;9.30;68.86
63306;BME280;50735;52.060;1.248;2023-08-06T05:52:23;100924.11;;;9.08;68.59
63306;BME280;50735;52.060;1.248;2023-08-06T05:54:55;100927.26;;;9.21;69.06
63306;BME280;50735;52.060;1.248;2023-08-06T05:57:27;100932.49;;;8.86;69.31
63306;BME280;50735;52.060;1.248;2023-08-06T05:59:58;100930.90;;;8.95;69.22
63306;BME280;50735;52.060;1.248;2023-08-06T06:02:30;100933.92;;;9.00;69.07
63306;BME280;50735;52.060;1.248;2023-08-06T06:05:02;100939.87;;;9.29;68.86
63306;BME280;50735;52.060;1.248;2023-08-06T06:07:34;100945.78;;;9.12;69.16
63306;BME280;50735;52.060;1.248;2023-08-06T06:10:07;100944.05;;;9.29;68.98
63306;BME280;50735;52.060;1.248;2023-08-06T06:12:40;100949.57;;;9.16;68.16
63306;BME280;50735;52.060;1.248;2023-08-06T06:15:12;100956.19;;;9.74;68.30
63306;BME280;50735;52.060;1.248;2023-08-06T06:17:44;100964.61;;;9.58;67.84
63306;BME280;50735;52.060;1.248;2023-08-06T06:20:16;100965.58;;;9.34;68.03
63306;BME280;50735;52.060;1.248;2023-08-06T06:22:48;100967.64;;;9.30;67.64
63306;BME280;50735;52.060;1.248;2023-08-06T06:25:20;100969.41;;;9.36;67.85
63306;BME280;50735;52.060;1.248;2023-08-06T06:27:52;100967.57;;;9.38;67.64
63306;BME280;50735;52.060;1.248;2023-08-06T06:30:23;100967.58;;;9.33;68.08
63306;BME280;50735;52.060;1.248;2023-08-06T06:32:55;100967.75;;;9.27;67.99
63306;BME280;50735;52.060;1.248;2023-08-06T06:35:27;100973.95;;;9.39;68.41
63306;BME280;50735;52.060;1.248;2023-08-06T06:37:59;100978.54;;;9.35;67.79
63306;BME280;50735;52.060;1.248;2023-08-06T06:40:30;100973.05;;;9.32;67.57
63306;BME280;50735;52.060;1.248;2023-08-06T06:43:02;100972.37;;;9.39;67.86
63306;BME280;50735;52.060;1.248;2023-08-06T06:45:34;100977.50;;;9.22;67.61
63306;BME280;50735;52.060;1.248;2023-08-06T06:48:06;100984.69;;;9.34;67.55
63306;BME280;50735;52.060;1.248;2023-08-06T06:50:38;100982.60;;;9.59;67.39
63306;BME280;50735;52.060;1.248;2023-08-06T06:53:09;100987.91;;;9.66;67.23
63306;BME280;50735;52.060;1.248;2023-08-06T06:55:41;100988.37;;;9.81;67.16
63306;BME280;50735;52.060;1.248;2023-08-06T06:58:13;100992.27;;;9.78;66.87
63306;BME280;50735;52.060;1.248;2023-08-06T07:00:46;100996.92;;;9.86;66.46
63306;BME280;50735;52.060;1.248;2023-08-06T07:03:19;100997.43;;;9.79;66.05
63306;BME280;50735;52.060;1.248;2023-08-06T07:05:57;100995.56;;;9.87;65.94
63306;BME280;50735;52.060;1.248;2023-08-06T07:08:29;101001.42;;;9.79;65.72
63306;BME280;50735;52.060;1.248;2023-08-06T07:11:02;101006.84;;;10.15;65.90
63306;BME280;50735;52.060;1.248;2023-08-06T07:13:34;100995.73;;;9.93;65.88
63306;BME280;50735;52.060;1.248;2023-08-06T07:16:06;101002.49;;;9.96;65.51
63306;BME280;50735;52.060;1.248;2023-08-06T07:18:38;101001.53;;;10.09;65.75
63306;BME280;50735;52.060;1.248;2023-08-06T07:21:10;101005.41;;;10.24;65.64
63306;BME280;50735;52.060;1.248;2023-08-06T07:23:42;101004.32;;;10.37;65.29
63306;BME280;50735;52.060;1.248;2023-08-06T07:26:13;101007.12;;;10.33;65.47
63306;BME280;50735;52.060;1.248;2023-08-06T07:28:45;101003.42;;;10.38;64.77
63306;BME280;50735;52.060;1.248;2023-08-06T07:31:17;101003.49;;;10.41;64.48
63306;BME280;50735;52.060;1.248;2023-08-06T07:33:49;100999.52;;;10.35;64.81
63306;BME280;50735;52.060;1.248;2023-08-06T07:36:21;101008.89;;;10.32;64.21
63306;BME280;50735;52.060;1.248;2023-08-06T07:38:53;101005.27;;;10.58;64.45
63306;BME280;50735;52.060;1.248;2023-08-06T07:41:25;101006.48;;;10.59;63.79
63306;BME280;50735;52.060;1.248;2023-08-06T07:43:56;101011.01;;;10.58;64.09
63306;BME280;50735;52.060;1.248;2023-08-06T07:46:28;101010.17;;;10.44;63.69
63306;BME280;50735;52.060;1.248;2023-08-06T07:49:00;101015.27;;;10.73;63.58
63306;BME280;50735;52.060;1.248;2023-08-06T07:51:31;101017.43;;;10.63;63.45
63306;BME280;50735;52.060;1.248;2023-08-06T07:54:03;101025.84;;;10.94;63.42
63306;BME280;50735;52.060;1.248;2023-08-06T07:56:35;101027.46;;;10.85;63.47
63306;BME280;50735;52.060;1.248;2023-08-06T07:59:07;101035.76;;;10.91;63.28
63306;BME280;50735;52.060;1.248;2023-08-06T08:01:39;101032.58;;;10.95;62.77
63306;BME280;50735;52.060;1.248;2023-08-06T08:04:10;101032.20;;;11.03;63.01
63306;BME280;50735;52.060;1.248;2023-08-06T08:06:42;101028.91;;;11.16;62.93
63306;BME280;50735;52.060;1.248;2023-08-06T08:09:14;101032.55;;;11.61;62.87
63306;BME280;50735;52.060;1.248;2023-08-06T08:11:46;101033.73;;;11.57;62.68
63306;BME280;50735;52.060;1.248;2023-08-06T08:14:18;101036.44;;;11.54;61.46
63306;BME280;50735;52.060;1.248;2023-08-06T08:16:50;101046.70;;;11.83;61.78
63306;BME280;50735;52.060;1.248;2023-08-06T08:19:22;101043.87;;;11.84;61.22
63306;BME280;50735;52.060;1.248;2023-08-06T08:21:53;101045.82;;;11.78;61.06
63306;BME280;50735;52.060;1.248;2023-08-06T08:24:25;101050.54;;;11.60;60.88
63306;BME280;50735;52.060;1.248;2023-08-06T08:26:57;101047.46;;;11.58;61.19
63306;BME280;50735;52.060;1.248;2023-08-06T08:29:29;101049.69;;;11.73;60.69
63306;BME280;50735;52.060;1.248;2023-08-06T08:32:00;101045.98;;;11.62;61.29
63306;BME280;50735;52.060;1.248;2023-08-06T08:34:32;101047.58;;;11.66;60.82
63306;BME280;50735;52.060;1.248;2023-08-06T08:37:04;101051.68;;;11.63;60.77
63306;BME280;50735;52.060;1.248;2023-08-06T08:39:36;101047.60;;;12.02;60.20
63306;BME280;50735;52.060;1.248;2023-08-06T08:42:09;101045.69;;;12.25;59.95
63306;BME280;50735;52.060;1.248;2023-08-06T08:44:42;101057.01;;;12.22;60.30
63306;BME280;50735;52.060;1.248;2023-08-06T08:47:14;101054.34;;;12.35;60.01
63306;BME280;50735;52.060;1.248;2023-08-06T08:49:47;101059.12;;;12.87;60.04
63306;BME280;50735;52.060;1.248;2023-08-06T08:52:21;101068.23;;;13.45;58.17
63306;BME280;50735;52.060;1.248;2023-08-06T08:54:54;101061.97;;;13.61;56.36
63306;BME280;50735;52.060;1.248;2023-08-06T08:57:26;101061.65;;;13.65;54.90
63306;BME280;50735;52.060;1.248;2023-08-06T08:59:58;101064.19;;;13.40;55.06
63306;BME280;50735;52.060;1.248;2023-08-06T09:02:30;101061.01;;;13.56;54.92
63306;BME280;50735;52.060;1.248;2023-08-06T09:05:04;101058.39;;;14.14;53.71
63306;BME280;50735;52.060;1.248;2023-08-06T09:07:42;101064.09;;;14.37;52.11
63306;BME280;50735;52.060;1.248;2023-08-06T09:10:15;101069.25;;;14.94;52.73
63306;BME280;50735;52.060;1.248;2023-08-06T09:12:48;101075.42;;;15.36;50.53
63306;BME280;50735;52.060;1.248;2023-08-06T09:15:24;101065.57;;;14.99;50.45
63306;BME280;50735;52.060;1.248;2023-08-06T09:17:56;101074.70;;;15.34;51.03
63306;BME280;50735;52.060;1.248;2023-08-06T09:20:28;101079.94;;;15.13;50.67
63306;BME280;50735;52.060;1.248;2023-08-06T09:23:07;101081.01;;;15.44;50.28
63306;BME280;50735;52.060;1.248;2023-08-06T09:25:39;101080.57;;;15.12;50.39
63306;BME280;50735;52.060;1.248;2023-08-06T09:28:11;101088.35;;;14.95;50.77
63306;BME280;50735;52.060;1.248;2023-08-06T09:30:43;101088.35;;;15.19;51.04
63306;BME280;50735;52.060;1.248;2023-08-06T09:33:18;101091.33;;;15.60;50.53
63306;BME280;50735;52.060;1.248;2023-08-06T09:35:50;101095.59;;;15.59;50.33
63306;BME280;50735;52.060;1.248;2023-08-06T09:38:22;101100.42;;;15.55;48.20
63306;BME280;50735;52.060;1.248;2023-08-06T09:40:53;101107.40;;;15.70;48.52
63306;BME280;50735;52.060;1.248;2023-08-06T09:43:25;101103.69;;;15.47;48.57
63306;BME280;50735;52.060;1.248;2023-08-06T09:45:57;101109.31;;;15.62;48.42
63306;BME280;50735;52.060;1.248;2023-08-06T09:48:29;101113.89;;;15.90;47.65
63306;BME280;50735;52.060;1.248;2023-08-06T09:51:02;101105.56;;;16.36;47.58
63306;BME280;50735;52.060;1.248;2023-08-06T09:53:36;101107.70;;;16.60;46.58
63306;BME280;50735;52.060;1.248;2023-08-06T09:56:09;101115.07;;;16.29;46.15
63306;BME280;50735;52.060;1.248;2023-08-06T09:58:43;101111.92;;;16.07;46.12
63306;BME280;50735;52.060;1.248;2023-08-06T10:01:16;101115.21;;;16.11;46.48
63306;BME280;50735;52.060;1.248;2023-08-06T10:03:50;101124.30;;;15.95;46.75
63306;BME280;50735;52.060;1.248;2023-08-06T10:06:24;101127.16;;;15.70;46.64
63306;BME280;50735;52.060;1.248;2023-08-06T10:08:57;101134.66;;;16.10;46.74
63306;BME280;50735;52.060;1.248;2023-08-06T10:11:29;101129.95;;;16.49;46.42
63306;BME280;50735;52.060;1.248;2023-08-06T10:14:05;101130.95;;;17.01;44.89
63306;BME280;50735;52.060;1.248;2023-08-06T10:16:38;101135.78;;;17.08;43.95
63306;BME280;50735;52.060;1.248;2023-08-06T10:19:12;101140.03;;;16.73;44.01
63306;BME280;50735;52.060;1.248;2023-08-06T10:22:08;101142.23;;;16.73;45.27
63306;BME280;50735;52.060;1.248;2023-08-06T10:24:49;101143.23;;;16.33;45.65
63306;BME280;50735;52.060;1.248;2023-08-06T10:27:23;101148.31;;;16.13;45.94
63306;BME280;50735;52.060;1.248;2023-08-06T10:30:32;101147.99;;;16.22;46.63
63306;BME280;50735;52.060;1.248;2023-08-06T10:33:04;101151.18;;;16.43;46.44
63306;BME280;50735;52.060;1.248;2023-08-06T10:35:37;101156.19;;;16.78;46.44
63306;BME280;50735;52.060;1.248;2023-08-06T10:38:11;101145.82;;;16.87;45.67
63306;BME280;50735;52.060;1.248;2023-08-06T10:40:49;101147.73;;;16.97;44.83
63306;BME280;50735;52.060;1.248;2023-08-06T10:43:29;101145.26;;;17.23;45.11
63306;BME280;50735;52.060;1.248;2023-08-06T10:46:03;101149.14;;;17.38;45.01
63306;BME280;50735;52.060;1.248;2023-08-06T10:48:36;101152.82;;;17.76;44.10
63306;BME280;50735;52.060;1.248;2023-08-06T10:51:10;101148.06;;;18.17;43.44
63306;BME280;50735;52.060;1.248;2023-08-06T10:53:44;101156.64;;;17.83;42.17
63306;BME280;50735;52.060;1.248;2023-08-06T10:56:17;101154.12;;;17.58;42.97
63306;BME280;50735;52.060;1.248;2023-08-06T10:58:51;101146.87;;;17.64;42.69
63306;BME280;50735;52.060;1.248;2023-08-06T11:01:23;101147.53;;;17.83;42.04
63306;BME280;50735;52.060;1.248;2023-08-06T11:03:56;101147.74;;;17.63;43.33
63306;BME280;50735;52.060;1.248;2023-08-06T11:06:27;101157.18;;;18.43;41.58
63306;BME280;50735;52.060;1.248;2023-08-06T11:08:59;101147.26;;;18.23;40.81
63306;BME280;50735;52.060;1.248;2023-08-06T11:11:30;101154.45;;;18.32;40.13
63306;BME280;50735;52.060;1.248;2023-08-06T11:14:02;101163.04;;;18.37;40.64
63306;BME280;50735;52.060;1.248;2023-08-06T11:16:35;101159.73;;;18.30;40.78
63306;BME280;50735;52.060;1.248;2023-08-06T11:19:07;101165.60;;;18.05;41.42
63306;BME280;50735;52.060;1.248;2023-08-06T11:21:39;101173.32;;;17.97;41.17
63306;BME280;50735;52.060;1.248;2023-08-06T11:24:11;101174.35;;;17.66;41.63
63306;BME280;50735;52.060;1.248;2023-08-06T11:26:42;101184.04;;;16.96;42.06
63306;BME280;50735;52.060;1.248;2023-08-06T11:29:15;101179.88;;;16.69;44.11
63306;BME280;50735;52.060;1.248;2023-08-06T11:31:46;101179.01;;;16.38;43.96
63306;BME280;50735;52.060;1.248;2023-08-06T11:34:18;101191.37;;;16.10;44.70
63306;BME280;50735;52.060;1.248;2023-08-06T11:36:51;101189.01;;;16.22;46.09
63306;BME280;50735;52.060;1.248;2023-08-06T11:39:22;101188.88;;;16.05;46.42
63306;BME280;50735;52.060;1.248;2023-08-06T11:41:55;101178.30;;;15.68;47.94
63306;BME280;50735;52.060;1.248;2023-08-06T11:44:29;101177.75;;;16.15;48.26
63306;BME280;50735;52.060;1.248;2023-08-06T11:47:03;101175.81;;;16.28;48.06
63306;BME280;50735;52.060;1.248;2023-08-06T11:49:40;101167.96;;;16.68;47.10
63306;BME280;50735;52.060;1.248;2023-08-06T11:52:16;101163.32;;;17.11;46.53
63306;BME280;50735;52.060;1.248;2023-08-06T11:55:00;101162.94;;;17.27;44.99
63306;BME280;50735;52.060;1.248;2023-08-06T11:57:32;101162.06;;;17.58;44.97
63306;BME280;50735;52.060;1.248;2023-08-06T12:00:07;101156.26;;;18.22;43.43
63306;BME280;50735;52.060;1.248;2023-08-06T12:02:40;101166.78;;;18.28;41.77
63306;BME280;50735;52.060;1.248;2023-08-06T12:05:13;101158.74;;;18.56;40.08
63306;BME280;50735;52.060;1.248;2023-08-06T12:07:46;101160.31;;;18.48;39.62
63306;BME280;50735;52.060;1.248;2023-08-06T12:10:19;101162.27;;;18.19;40.31
63306;BME280;50735;52.060;1.248;2023-08-06T12:12:51;101168.11;;;18.23;40.84
63306;BME280;50735;52.060;1.248;2023-08-06T12:15:24;101171.56;;;17.89;41.00
63306;BME280;50735;52.060;1.248;2023-08-06T12:17:56;101168.46;;;17.85;40.50
63306;BME280;50735;52.060;1.248;2023-08-06T12:20:28;101171.61;;;17.86;40.43
63306;BME280;50735;52.060;1.248;2023-08-06T12:23:00;101168.75;;;17.84;40.03
63306;BME280;50735;52.060;1.248;2023-08-06T12:25:32;101179.54;;;17.36;41.73
63306;BME280;50735;52.060;1.248;2023-08-06T12:28:04;101202.00;;;17.05;43.97
63306;BME280;50735;52.060;1.248;2023-08-06T12:30:36;101210.61;;;16.47;45.32
63306;BME280;50735;52.060;1.248;2023-08-06T12:33:07;101225.07;;;16.10;45.96
63306;BME280;50735;52.060;1.248;2023-08-06T12:35:39;101230.52;;;16.06;46.43
63306;BME280;50735;52.060;1.248;2023-08-06T12:38:11;101237.66;;;16.04;47.61
63306;BME280;50735;52.060;1.248;2023-08-06T12:40:42;101247.30;;;15.68;49.50
63306;BME280;50735;52.060;1.248;2023-08-06T12:43:14;101247.98;;;15.38;51.53
63306;BME280;50735;52.060;1.248;2023-08-06T12:45:46;101246.32;;;15.46;50.39
63306;BME280;50735;52.060;1.248;2023-08-06T12:48:18;101240.05;;;15.21;50.45
63306;BME280;50735;52.060;1.248;2023-08-06T12:50:50;101239.43;;;15.15;49.56
63306;BME280;50735;52.060;1.248;2023-08-06T12:53:22;101244.04;;;15.41;49.78
63306;BME280;50735;52.060;1.248;2023-08-06T12:55:53;101244.75;;;15.40;49.94
63306;BME280;50735;52.060;1.248;2023-08-06T12:58:25;101245.11;;;15.32;49.15
63306;BME280;50735;52.060;1.248;2023-08-06T13:00:57;101244.69;;;15.43;48.90
63306;BME280;50735;52.060;1.248;2023-08-06T13:03:28;101246.05;;;15.25;49.45
63306;BME280;50735;52.060;1.248;2023-08-06T13:06:00;101240.67;;;15.50;47.11
63306;BME280;50735;52.060;1.248;2023-08-06T13:08:32;101238.08;;;15.98;46.97
63306;BME280;50735;52.060;1.248;2023-08-06T13:11:04;101237.23;;;16.32;45.74
63306;BME280;50735;52.060;1.248;2023-08-06T13:13:36;101240.31;;;16.76;43.83
63306;BME280;50735;52.060;1.248;2023-08-06T13:16:08;101243.02;;;17.09;41.42
63306;BME280;50735;52.060;1.248;2023-08-06T13:18:40;101242.12;;;16.80;41.63
63306;BME280;50735;52.060;1.248;2023-08-06T13:21:12;101245.13;;;16.76;41.02
63306;BME280;50735;52.060;1.248;2023-08-06T13:23:44;101243.06;;;17.19;41.45